Logo AVAMET
Benvolgut visitant, si us plau, ingressa Recuperar contrasenya
AVAMET paisatges
Union Alcoyana

Elx Ferriol

Dades diàries. Acumulats / Últims 30 dies disponibles

Data Temperatura (°C) Humitat rel. (%) Pressió rel. (hPa) Vent (km/h) Precipitació
Mínima Mitjana Màxima Amplitud
tèrmica
Mínima Mitjana Màxima Mínima Mitjana Màxima Predom. Mitjana Ràfega
màxima
Total
(mm)
Índex-n
Mínima Mitjana Màxima Mínima Mitjana Màxima n
0 a 1
P0 max
mm 5'
Dades mensuals acumulades fins l'últim dia disponible
08/2021 20,1 20,9 21,7 24,8 28,3 28,8 29,2 9,1 34 58 83 1.011 1.015 1.017   36,0 0,0
Dades anuals acumulades fins l'últim dia disponible
2021 2,6 13,1 24,1 17,9 8,0 22,7 42,0 39,4 9 66 99 1.001 1.017 1.035   59,0 229,9
Últims 30 dies disponibles
02-08-2021 20,1     24,6     29,2 9,1 38 61 83 1.014 1.016 1.017 36,0 0,0
01-08-2021 21,7     25,0     28,3 6,6 34 56 77 1.011 1.014 1.016 27,0 0,0
31-07-2021 20,7     26,2     31,8 11,1 24 57 90 1.008 1.010 1.012 26,0 0,0
30-07-2021 21,7     29,4     37,1 15,4 29 60 91 1.009 1.012 1.014 24,0 0,0
29-07-2021 20,2     25,8     31,3 11,1 46 68 90 1.013 1.015 1.016 23,0 0,0
28-07-2021 18,9     24,1     29,3 10,4 55 74 92 1.012 1.014 1.016 27,0 0,0
27-07-2021 19,2     24,8     30,4 11,2 46 68 89 1.013 1.015 1.016 27,0 0,0
26-07-2021 20,2     24,4     28,6 8,4 53 74 94 1.010 1.013 1.016 35,0 4,3
25-07-2021 21,4     27,1     32,9 11,5 37 62 86 1.008 1.010 1.011 32,0 0,0
24-07-2021 24,1     29,9     35,8 11,7 23 53 82 1.007 1.009 1.011 24,0 0,0
23-07-2021 22,5     29,1     35,7 13,2 24 49 73 1.010 1.014 1.017 20,0 0,0
22-07-2021 22,1     29,0     35,9 13,8 20 53 85 1.015 1.017 1.018 21,0 0,0
21-07-2021 20,1     26,9     33,6 13,5 31 62 93 1.016 1.017 1.018 22,0 0,0
20-07-2021 20,1     26,3     32,5 12,4 31 58 85 1.014 1.015 1.016 24,0 0,0
19-07-2021 21,9     26,6     31,4 9,5 31 62 92 1.012 1.014 1.015 23,0 0,0
18-07-2021 19,4     25,4     31,5 12,1 37 63 88 1.011 1.014 1.016 25,0 0,0
17-07-2021 19,3     25,3     31,3 12,0 39 64 89 1.015 1.017 1.018 23,0 0,0
16-07-2021 18,3     24,3     30,3 12,0 43 64 85 1.017 1.018 1.019 30,0 0,0
15-07-2021 18,4     23,3     28,2 9,8 45 66 86 1.017 1.018 1.019 26,0 0,0
14-07-2021 18,3     23,4     28,6 10,3 43 60 77 1.017 1.018 1.019 30,0 0,0
13-07-2021 20,1     25,2     30,3 10,2 19 44 69 1.012 1.015 1.018 26,0 0,0
12-07-2021 22,8     32,4     42,0 19,2 9 50 91 1.007 1.011 1.014 38,0 0,0
11-07-2021 20,1     26,1     32,2 12,1 45 68 91 1.012 1.015 1.017 25,0 0,0
10-07-2021 19,1     25,8     32,4 13,3 24 53 82 1.016 1.018 1.020 21,0 0,0
09-07-2021 20,3     24,4     28,6 8,3 51 69 87 1.019 1.021 1.022 28,0 0,0
08-07-2021 20,9     25,1     29,4 8,5 39 62 84 1.017 1.020 1.022 27,0 0,0
07-07-2021 22,2     26,4     30,6 8,4 35 61 87 1.011 1.014 1.017 31,0 0,0
06-07-2021 22,4     30,2     38,0 15,6 23 56 89 1.009 1.011 1.012 33,0 0,0
05-07-2021 20,5     25,6     30,8 10,3 48 71 94 1.011 1.013 1.015 28,0 0,0
04-07-2021 20,7     27,2     33,8 13,1 29 61 93 1.012 1.014 1.015 29,0 0,0
Últims 13 mesos disponibles
11/2020 6,4 11,9 16,7 16,5 17,6 21,1 26,1 19,7 61 75 86 1.007 1.021 1.029 48,0 15,5
10/2020 10,6 13,8 18,5 19,3 19,2 24,9 32,8 22,2 42 60 79 999 1.017 1.025 63,0 1,3
09/2020 14,3 18,6 21,0 23,7 24,5 28,8 33,0 18,7 35 62 82 1.012 1.017 1.024 48,0 3,6
08/2020 17,1 21,8 24,6 27,3 27,2 32,8 36,2 19,1 43 63 79 1.005 1.014 1.019 36,0 5,6
07/2020 19,2 21,2 24,8 26,6 29,2 31,9 35,6 16,4 50 63 78 1.012 1.016 1.021 35,0 0,0
06/2020 13,4 17,8 21,2 23,3 21,9 28,7 32,7 19,3 43 64 82 1.007 1.014 1.021 51,0 27,2
05/2020 12,2 16,0 19,7 21,2 20,2 26,3 31,9 19,7 47 62 81 1.007 1.017 1.026 43,0 13,8
04/2020 8,2 11,7 15,6 16,0 16,4 20,3 26,7 18,5 51 72 88 1.007 1.015 1.025 46,0 49,9
03/2020 7,6 10,3 15,8 14,7 10,3 19,0 26,3 18,7 44 67 89 1.009 1.017 1.024 60,0 69,5
02/2020 5,7 10,0 14,2 15,2 14,4 20,3 26,4 20,7 36 67 86 1.015 1.025 1.032 45,0 3,4
01/2020 4,1 7,4 13,8 11,8 12,7 16,1 22,2 18,1 52 72 89 1.014 1.024 1.032 72,0 47,5
12/2019 5,8 10,2 16,1 14,1 13,3 18,0 24,0 18,2 41 68 87 1.006 1.019 1.032 57,0 36,2
11/2019 5,1 11,2 19,1 15,0 13,3 18,9 26,9 21,8 48 61 92 1.001 1.011 1.018 55,0 18,3
Tots els anys disponibles
2019 2,2 14,0 25,9 18,7 12,7 23,5 39,4 37,2 33 63 92 999 1.017 1.032 SSE 0,0 63,0 415,4
2018 2,7 14,4 26,0 19,1 9,4 23,7 36,6 33,9 37 64 90 994 1.015 1.033 65,0 230,4
Temperatura (°C)
Humitat relativa (%)
Velocitat del vent i ràfega màxima (km/h)
Direcció del vent (°)
Pressió (hPa)
Precipitació (mm)
Nota sobre les dades: s'avisa a l'usuari de la provisionalitat i no oficialitat d'aquestes dades
Logo AVAMET blanc
Web allotjada a Sollutia
Llicència de Creative CommonsLa web d'AVAMET i els seus continguts estan subjectes a una llicència de
Reconeixement - No Comercial - Compartir igual
Avís legal - Política de privacitat - Política de cookies
NOVES ESTACIONS: Rossellles Cases del Riu (Soci), la Mata (Ajuntament/Soci), l'Alcora Araia (Soci), la Vila Joiosa - Salomó del Carabassot (Soci), Ares del Maestrat - la Vall de Catí (Soci), Alpuente - la Torre (Soci), Gaibiel (Ajuntament/Soci), Almenara - Comunitat de Regants (Soci), Gandia - Camí de la mar (Soci) - - -